To NAV CANADA Home Page Login to a new session Search on AWWS site Disclaimer Vers la page française équivalente Tips FAQ What's new on the site To the Forecasts and Observations / NOTAM section To "File a Flight Plan" website Publications and other links Update of the User's profile FIC Telephone Numbers My Weather Data Folder Route Weather Data Regional Weather Data Local Weather Data To the Forecasts and Observations / NOTAM section
Request Generated 07/21/2018 at 19:18:09 UTC . Weather information available at that time is displayed.


Go to a specific product

Save this request - Inactive

METAR/TAF

If you find any discrepancies between the coded METAR/TAF and the plain language METAR/TAF please use the coded METAR/TAF. LWIS bulletins are not decoded in plain language.

OTTAWA/GATINEAU/QC    

METAR CYND 211900Z 10009G15KT 15SM FEW058 SCT100 BKN230 29/16 A3001 RMK CU1AC2C SLP163 DENSITY ALT 1800FT=
METAR
LOCATION
CYND - OTTAWA/GATINEAU/QC
DATE - TIME
21 JULY 2018 - 1900 UTC
WIND
100 TRUE @ 9  KNOTS
GUSTS
15 KNOTS
VISIBILITY
15 STAT.  MILES
RUNWAY VISUAL RANGE
WEATHER
CLOUDINESS
FEW CLOUDS (1/8 - 2/8) 5800  FT
SCATTERED CLOUDS (3/8 - 4/8) 10000  FT
BROKEN CLOUDS (5/8 - 7/8) 23000  FT
TEMP / DEWPOINT
29 C / 16 C
ALTIMETER
30.01 IN HG
RECENT WEATHER
WIND SHEAR

METAR CYND 211800Z 11011KT 15SM FEW057 BKN240 30/16 A3003 RMK CU2CI4 SLP170 DEN TY ALT 1800FT=
METAR
LOCATION
CYND - OTTAWA/GATINEAU/QC
DATE - TIME
21 JULY 2018 - 1800 UTC
WIND
110 TRUE @ 11  KNOTS
VISIBILITY
15 STAT.  MILES
RUNWAY VISUAL RANGE
WEATHER
CLOUDINESS
FEW CLOUDS (1/8 - 2/8) 5700  FT
BROKEN CLOUDS (5/8 - 7/8) 24000  FT
TEMP / DEWPOINT
30 C / 16 C
ALTIMETER
30.03 IN HG
RECENT WEATHER
WIND SHEAR

METAR CYND 211700Z 08009KT 060V160 15SM FEW055 BKN240 28/15 A3005 RMK CU2CI4 SL 76 DENSITY ALT 1600FT=
METAR
LOCATION
CYND - OTTAWA/GATINEAU/QC
DATE - TIME
21 JULY 2018 - 1700 UTC
WIND
80 TRUE @ 9  KNOTS
VARIATION
60 <-> 160  DEG
VISIBILITY
15 STAT.  MILES
RUNWAY VISUAL RANGE
WEATHER
CLOUDINESS
FEW CLOUDS (1/8 - 2/8) 5500  FT
BROKEN CLOUDS (5/8 - 7/8) 24000  FT
TEMP / DEWPOINT
28 C / 15 C
ALTIMETER
30.05 IN HG
RECENT WEATHER
WIND SHEAR

TAF CYND 211740Z 2118/2201 11008KT P6SM FEW050 BKN250 RMK NXT FCST WILL BE ISSUED AT 221245Z=
TAF
LOCATION

CYND - OTTAWA/GATINEAU/QC
VALIDITY [UTC]
21 JUL - 1740 to
22 JUL - 0100
 
TIMES
[UTC]
WIND
[DEGREES TRUE]
VISIBILITY
[STAT. MILES]
WEATHER
CLOUDINESS
[FEET AGL]
 
21 JUL - 1800 to
22 JUL - 0100
110 @ 8 KNOTS
6+
NIL
5000 FEW
25000 BROKEN
REMARKS
THE NEXT FORECAST WILL BE ISSUED AT 1245 UTC ON DAY 22


OTTAWA/MACDONALD-CARTIER INTL/ON    

METAR CYOW 211900Z 12012G19KT 15SM FEW060 BKN240 30/13 A3001 RMK CU2CI5 SLP162 NSITY ALT 2100FT=
METAR
LOCATION
CYOW - OTTAWA/MACDONALD-CARTIER INTL/ON
DATE - TIME
21 JULY 2018 - 1900 UTC
WIND
120 TRUE @ 12  KNOTS
GUSTS
19 KNOTS
VISIBILITY
15 STAT.  MILES
RUNWAY VISUAL RANGE
WEATHER
CLOUDINESS
FEW CLOUDS (1/8 - 2/8) 6000  FT
BROKEN CLOUDS (5/8 - 7/8) 24000  FT
TEMP / DEWPOINT
30 C / 13 C
ALTIMETER
30.01 IN HG
RECENT WEATHER
WIND SHEAR

METAR CYOW 211800Z 10011G19KT 090V150 15SM FEW060 BKN240 29/14 A3003 RMK CU2CI4 LP169 DENSITY ALT 2000FT=
METAR
LOCATION
CYOW - OTTAWA/MACDONALD-CARTIER INTL/ON
DATE - TIME
21 JULY 2018 - 1800 UTC
WIND
100 TRUE @ 11  KNOTS
VARIATION
90 <-> 150  DEG
GUSTS
19 KNOTS
VISIBILITY
15 STAT.  MILES
RUNWAY VISUAL RANGE
WEATHER
CLOUDINESS
FEW CLOUDS (1/8 - 2/8) 6000  FT
BROKEN CLOUDS (5/8 - 7/8) 24000  FT
TEMP / DEWPOINT
29 C / 14 C
ALTIMETER
30.03 IN HG
RECENT WEATHER
WIND SHEAR

METAR CYOW 211700Z 12008G15KT 110V170 15SM FEW056 BKN240 27/14 A3005 RMK CU2CI5 LP176 DENSITY ALT 1800FT=
METAR
LOCATION
CYOW - OTTAWA/MACDONALD-CARTIER INTL/ON
DATE - TIME
21 JULY 2018 - 1700 UTC
WIND
120 TRUE @ 8  KNOTS
VARIATION
110 <-> 170  DEG
GUSTS
15 KNOTS
VISIBILITY
15 STAT.  MILES
RUNWAY VISUAL RANGE
WEATHER
CLOUDINESS
FEW CLOUDS (1/8 - 2/8) 5600  FT
BROKEN CLOUDS (5/8 - 7/8) 24000  FT
TEMP / DEWPOINT
27 C / 14 C
ALTIMETER
30.05 IN HG
RECENT WEATHER
WIND SHEAR

TAF CYOW 211740Z 2118/2218 13008G18KT P6SM FEW050 BKN240 BECMG 2122/2124 11008KT FM220800 05008KT P6SM BKN180 FM221000 07010G20KT P6SM BKN120 FM221200 08012G22KT P6SM -SHRA BKN020 OVC090 BECMG 2213/2215 08015G25KT RMK NXT FCST BY 212100Z=
TAF

21 JUL 2018 - 1740 UTC
LOCATION

CYOW - OTTAWA/MACDONALD-CARTIER INTL/ON
VALIDITY [UTC]
21 JUL - 1740 to
22 JUL - 1800
 
TIMES
[UTC]
WIND
[DEGREES TRUE]
VISIBILITY
[STAT. MILES]
WEATHER
CLOUDINESS
[FEET AGL]
 
21 JUL - 1800 to
22 JUL - 0800
130 @ 8 KNOTS
GUSTS 18 KNOTS
6+
NIL
5000 FEW
24000 BROKEN
BECOMING
21 JUL - 2200 to
22 JUL - 0000
110 @ 8 KNOTS
 
 
 
 
22 JUL - 0800 to
22 JUL - 1000
50 @ 8 KNOTS
6+
NIL
18000 BROKEN
 
22 JUL - 1000 to
22 JUL - 1200
70 @ 10 KNOTS
GUSTS 20 KNOTS
6+
NIL
12000 BROKEN
 
22 JUL - 1200 to
22 JUL - 1800
80 @ 12 KNOTS
GUSTS 22 KNOTS
6+
LIGHT RAIN SHOWER
2000 BROKEN
9000 OVERCAST
BECOMING
22 JUL - 1300 to
22 JUL - 1500
80 @ 15 KNOTS
GUSTS 25 KNOTS
 
 
 
REMARKS
THE NEXT FORECAST WILL BE ISSUED BY 2100 UTC ON DAY 21




GRAPHICAL FA CLOUDS & WEATHER FORECASTS
To the Product Selector
Graphical FA gfacn33      

GRAPHICAL FA ICING, TURBULENCE & FREEZING LEVEL FORECASTS
To the Product Selector
Graphical FA gfacn33      

FDTEXT Low Level FD. Temperatures are not forecast for the 3,000-foot level.
To the Product Selector
STN YOW - OTTAWA. ONT for use 3000 6000 9000 12000 18000
FDCN01 CWAO FCST BASED ON 211200 DATA VALID 211800 17-21 1313 1424+12 1619+11 1720+05 1628-06
FDCN02 CWAO FCST BASED ON 211200 DATA VALID 220000 21-06 1210 1211+13 1618+10 1618+06 1729-06
FDCN03 CWAO FCST BASED ON 211200 DATA VALID 221200 06-17 1123 1130+13 1321+11 1229+04 1637-04



Your time UTC time
Weather data provided by Environment Canada and NAV CANADA